Time,TemperatureF,DewpointF,PressureIn,WindDirection,WindDirectionDegrees,WindSpeedMPH,WindSpeedGustMPH,Humidity,HourlyPrecipIn,Conditions,Clouds,dailyrainin,SoftwareType,DateUTC
2013-06-24 00:00:00,78.7,70.5,29.97,SSE,158,4.0,12.0,76,0.00,,SKC,0.00,VWS V14.01,2013-06-24 05:00:00,
2013-06-24 00:30:00,77.8,70.8,29.98,SE,135,5.0,12.0,79,0.00,,SKC,0.00,VWS V14.01,2013-06-24 05:30:00,
2013-06-24 01:00:00,77.0,71.1,29.98,SE,135,4.0,12.0,82,0.00,,SKC,0.00,VWS V14.01,2013-06-24 06:00:00,
2013-06-24 01:30:00,76.4,71.2,29.98,SE,135,4.0,11.0,84,0.00,,SKC,0.00,VWS V14.01,2013-06-24 06:30:00,
2013-06-24 02:00:00,76.0,71.2,29.99,SSE,158,4.0,12.0,85,0.00,,SKC,0.00,VWS V14.01,2013-06-24 07:00:00,
2013-06-24 02:30:00,76.1,71.6,29.98,SSE,158,4.0,15.0,86,0.00,,SKC,0.00,VWS V14.01,2013-06-24 07:30:00,
2013-06-24 03:00:00,76.2,71.7,29.98,SSE,158,5.0,16.0,86,0.00,,SKC,0.00,VWS V14.01,2013-06-24 08:00:00,
2013-06-24 03:30:00,76.4,71.9,29.98,SE,135,7.0,18.0,86,0.00,,SKC,0.00,VWS V14.01,2013-06-24 08:30:00,
2013-06-24 04:00:00,76.3,71.8,29.98,SE,135,5.0,14.0,86,0.00,,SKC,0.00,VWS V14.01,2013-06-24 09:00:00,
2013-06-24 04:30:00,75.9,71.8,29.98,SE,135,4.0,11.0,87,0.00,,SKC,0.00,VWS V14.01,2013-06-24 09:30:00,
2013-06-24 05:00:00,75.6,72.1,29.98,SE,135,3.0,10.0,89,0.00,,SKC,0.00,VWS V14.01,2013-06-24 10:00:00,
2013-06-24 05:30:00,75.3,72.2,29.98,SE,135,4.0,10.0,90,0.00,,SKC,0.00,VWS V14.01,2013-06-24 10:30:00,
2013-06-24 06:00:00,75.1,72.0,29.99,SSE,158,4.0,12.0,90,0.00,,SKC,0.00,VWS V14.01,2013-06-24 11:00:00,
2013-06-24 06:30:00,75.3,72.2,29.99,SSE,158,5.0,13.0,90,0.00,,SKC,0.00,VWS V14.01,2013-06-24 11:30:00,
2013-06-24 07:00:00,75.6,72.1,30.00,SE,135,5.0,13.0,89,0.00,,SKC,0.00,VWS V14.01,2013-06-24 12:00:00,
2013-06-24 07:30:00,75.8,72.3,30.00,SE,135,5.0,15.0,89,0.00,,SKC,0.00,VWS V14.01,2013-06-24 12:30:00,
2013-06-24 08:00:00,76.2,72.7,30.01,SE,135,5.0,14.0,89,0.00,,SKC,0.00,VWS V14.01,2013-06-24 13:00:00,
2013-06-24 08:30:00,76.9,73.1,30.02,SSE,158,5.0,15.0,88,0.00,,SKC,0.00,VWS V14.01,2013-06-24 13:30:00,
2013-06-24 09:00:00,78.2,73.3,30.02,SE,135,5.0,14.0,85,0.00,,SKC,0.00,VWS V14.01,2013-06-24 14:00:00,
2013-06-24 09:30:00,79.1,73.1,30.02,SSE,158,7.0,18.0,82,0.00,,SKC,0.00,VWS V14.01,2013-06-24 14:30:00,
2013-06-24 10:00:00,79.8,73.5,30.02,SSE,158,7.0,18.0,81,0.00,,SKC,0.00,VWS V14.01,2013-06-24 15:00:00,
2013-06-24 10:30:00,82.8,74.1,30.02,SSE,158,7.0,18.0,75,0.00,,SKC,0.00,VWS V14.01,2013-06-24 15:30:00,
2013-06-24 11:00:00,84.6,74.2,30.01,SSE,158,6.0,16.0,71,0.00,,SKC,0.00,VWS V14.01,2013-06-24 16:00:00,
2013-06-24 11:30:00,84.8,73.5,30.01,SSE,158,7.0,17.0,69,0.00,,SKC,0.00,VWS V14.01,2013-06-24 16:30:00,
2013-06-24 12:00:00,87.5,72.9,30.00,SSE,158,8.0,19.0,62,0.00,,SKC,0.00,VWS V14.01,2013-06-24 17:00:00,
2013-06-24 12:30:00,88.9,72.7,30.00,SSE,158,7.0,18.0,59,0.00,,SKC,0.00,VWS V14.01,2013-06-24 17:30:00,
2013-06-24 13:00:00,89.9,72.1,29.99,SSE,158,7.0,22.0,56,0.00,,SKC,0.00,VWS V14.01,2013-06-24 18:00:00,
2013-06-24 13:30:00,90.7,71.2,29.98,SSE,158,7.0,17.0,53,0.00,,SKC,0.00,VWS V14.01,2013-06-24 18:30:00,
2013-06-24 14:00:00,91.5,70.8,29.97,SSE,158,7.0,18.0,51,0.00,,SKC,0.00,VWS V14.01,2013-06-24 19:00:00,
2013-06-24 14:30:00,92.1,70.2,29.96,SSE,158,8.0,18.0,49,0.00,,SKC,0.00,VWS V14.01,2013-06-24 19:30:00,
2013-06-24 15:00:00,93.4,70.2,29.95,SSE,158,8.0,18.0,47,0.00,,SKC,0.00,VWS V14.01,2013-06-24 20:00:00,
2013-06-24 15:30:00,94.0,70.7,29.94,SSE,158,7.0,16.0,47,0.00,,SKC,0.00,VWS V14.01,2013-06-24 20:30:00,
2013-06-24 16:00:00,93.8,69.9,29.92,SSE,158,6.0,15.0,46,0.00,,SKC,0.00,VWS V14.01,2013-06-24 21:00:00,
2013-06-24 16:30:00,93.5,70.3,29.92,SSE,158,8.0,21.0,47,0.00,,SKC,0.00,VWS V14.01,2013-06-24 21:30:00,
2013-06-24 17:00:00,93.4,70.2,29.91,SSE,158,8.0,20.0,47,0.00,,SKC,0.00,VWS V14.01,2013-06-24 22:00:00,
2013-06-24 17:30:00,93.8,71.2,29.90,SSE,158,7.0,21.0,48,0.00,,SKC,0.00,VWS V14.01,2013-06-24 22:30:00,
2013-06-24 18:00:00,93.1,70.5,29.89,SE,135,7.0,19.0,48,0.00,,SKC,0.00,VWS V14.01,2013-06-24 23:00:00,
2013-06-24 18:30:00,91.9,69.4,29.88,SSE,158,8.0,18.0,48,0.00,,SKC,0.00,VWS V14.01,2013-06-24 23:30:00,
2013-06-24 19:00:00,91.1,69.3,29.89,SSE,158,7.0,20.0,49,0.00,,SKC,0.00,VWS V14.01,2013-06-25 00:00:00,
2013-06-24 19:30:00,89.7,68.6,29.89,SE,135,7.0,24.0,50,0.00,,SKC,0.00,VWS V14.01,2013-06-25 00:30:00,
2013-06-24 20:00:00,88.4,68.0,29.90,SSE,158,7.0,24.0,51,0.00,,SKC,0.00,VWS V14.01,2013-06-25 01:00:00,
2013-06-24 20:30:00,86.9,69.3,29.91,SE,135,6.0,18.0,56,0.00,,SKC,0.00,VWS V14.01,2013-06-25 01:30:00,
2013-06-24 21:00:00,85.7,70.2,29.92,SSE,158,6.0,16.0,60,0.00,,SKC,0.00,VWS V14.01,2013-06-25 02:00:00,
2013-06-24 21:30:00,84.5,70.5,29.92,SSE,158,5.0,14.0,63,0.00,,SKC,0.00,VWS V14.01,2013-06-25 02:30:00,
2013-06-24 22:00:00,83.4,71.3,29.94,SSE,158,6.0,16.0,67,0.00,,SKC,0.00,VWS V14.01,2013-06-25 03:00:00,
2013-06-24 22:30:00,82.1,72.2,29.96,SSE,158,5.0,20.0,72,0.00,,SKC,0.00,VWS V14.01,2013-06-25 03:30:00,
2013-06-24 23:00:00,80.9,71.8,29.97,SSE,158,6.0,17.0,74,0.00,,SKC,0.00,VWS V14.01,2013-06-25 04:00:00,
2013-06-24 23:30:00,80.0,71.8,29.98,SE,135,6.0,14.0,76,0.00,,SKC,0.00,VWS V14.01,2013-06-25 04:30:00,